Time;durP1;ratioP1;P1;durP2;ratioP2;P2;SDS_P1;SDS_P2;PMS_P1;PMS_P2;Temp;Humidity;BMP_temperature;BMP_pressure;BME280_temperature;BME280_humidity;BME280_pressure;Samples;Min_cycle;Max_cycle;Signal;HPM_P1;HPM_P2
2023/11/28 00:01:06;;;;;;;;;;;;;;;;;;5042568;28;5026;-55
2023/11/28 00:03:32;;;;;;;;;;;;;;;;;;5040757;28;5063;-55
2023/11/28 00:05:57;;;;;;;;;;;;;;;;;;5046076;28;5263;-56
2023/11/28 00:08:22;;;;;;;;;;;;;;;;;;5040042;28;5160;-54
2023/11/28 00:10:48;;;;;;;;;;;;;;;;;;5048260;28;1149;-55
2023/11/28 00:13:13;;;;;;;;;;;;;;;;;;5042729;28;4984;-53
2023/11/28 00:15:39;;;;;;;;;;;;;;;;;;5045913;28;5446;-56
2023/11/28 00:18:04;;;;;;;;;;;;;;;;;;5049089;28;5009;-57
2023/11/28 00:20:30;;;;;;;;;;;;;;;;;;5045753;28;5428;-57
2023/11/28 00:22:55;;;;;;;;;;;;;;;;;;5047745;28;1078;-56
2023/11/28 00:25:20;;;;;;;;;;;;;;;;;;5026661;28;4838;-56
2023/11/28 00:27:45;;;;;;;;;;;;;;;;;;5048886;28;4983;-57
2023/11/28 00:30:12;;;;;;;;;;;;;;;;;;5046914;28;5311;-55
2023/11/28 00:32:37;;;;;;;;;;;;;;;;;;5049154;28;4669;-55
2023/11/28 00:35:02;;;;;;;;;;;;;;;;;;5046329;28;5065;-56
2023/11/28 00:37:28;;;;;;;;;;;;;;;;;;5032443;28;1152;-58
2023/11/28 00:39:53;;;;;;;;;;;;;;;;;;5048553;28;5286;-56
2023/11/28 00:42:18;;;;;;;;;;;;;;;;;;5048521;28;5162;-55
2023/11/28 00:44:43;;;;;;;;;;;;;;;;;;5048600;28;5028;-55
2023/11/28 00:47:12;;;;;;;;;;;;;;;;;;5048140;28;5306;-56
2023/11/28 00:49:41;;;;;;;;;;;;;;;;;;5037430;28;1171;-56
2023/11/28 00:52:07;;;;;;;;;;;;;;;;;;5048164;28;5112;-54
2023/11/28 00:54:33;;;;;;;;;;;;;;;;;;5048220;28;5017;-55
2023/11/28 00:56:58;;;;;;;;;;;;;;;;;;5047952;28;4502;-55
2023/11/28 00:59:23;;;;;;;;;;;;;;;;;;5047939;28;4863;-56
2023/11/28 01:01:49;;;;;;;;;;;;;;;;;;5048795;28;1338;-55
2023/11/28 01:04:14;;;;;;;;;;;;;;;;;;5046125;28;4437;-56
2023/11/28 01:06:39;;;;;;;;;;;;;;;;;;5047695;28;4998;-56
2023/11/28 01:09:05;;;;;;;;;;;;;;;;;;5047864;28;5035;-56
2023/11/28 01:11:30;;;;;;;;;;;;;;;;;;5016711;28;5128;-56
2023/11/28 01:13:55;;;;;;;;;;;;;;;;;;5047815;28;1137;-56
2023/11/28 01:16:21;;;;;;;;;;;;;;;;;;5047268;28;5175;-54
2023/11/28 01:18:46;;;;;;;;;;;;;;;;;;5047428;28;5150;-57
2023/11/28 01:21:11;;;;;;;;;;;;;;;;;;5045821;28;5060;-57
2023/11/28 01:23:37;;;;;;;;;;;;;;;;;;5048125;28;5081;-57
2023/11/28 01:26:02;;;;;;;;;;;;;;;;;;5043903;28;5055;-57
2023/11/28 01:28:28;;;;;;;;;;;;;;;;;;5043892;28;4958;-57
2023/11/28 01:30:53;;;;;;;;;;;;;;;;;;5038712;28;5038;-56
2023/11/28 01:33:18;;;;;;;;;;;;;;;;;;5041320;28;5079;-56
2023/11/28 01:35:43;;;;;;;;;;;;;;;;;;5046160;28;5099;-57
2023/11/28 01:38:09;;;;;;;;;;;;;;;;;;5047444;28;4982;-56
2023/11/28 01:40:34;;;;;;;;;;;;;;;;;;5047776;28;1309;-56
2023/11/28 01:43:00;;;;;;;;;;;;;;;;;;5047449;28;5143;-56
2023/11/28 01:45:25;;;;;;;;;;;;;;;;;;5041138;28;5274;-56
2023/11/28 01:47:52;;;;;;;;;;;;;;;;;;5047607;28;5115;-54
2023/11/28 01:50:18;;;;;;;;;;;;;;;;;;5047006;28;4474;-56
2023/11/28 01:52:43;;;;;;;;;;;;;;;;;;5047845;28;1129;-56
2023/11/28 01:55:09;;;;;;;;;;;;;;;;;;5028759;28;4906;-55
2023/11/28 01:57:34;;;;;;;;;;;;;;;;;;5029067;28;4480;-56
2023/11/28 02:00:00;;;;;;;;;;;;;;;;;;5047088;28;5065;-55
2023/11/28 02:02:26;;;;;;;;;;;;;;;;;;5029146;28;4955;-54
2023/11/28 02:04:51;;;;;;;;;;;;;;;;;;5042438;28;1611;-54
2023/11/28 02:07:16;;;;;;;;;;;;;;;;;;5024963;28;4992;-53
2023/11/28 02:09:42;;;;;;;;;;;;;;;;;;5046777;28;4547;-55
2023/11/28 02:12:07;;;;;;;;;;;;;;;;;;5044000;28;4480;-54
2023/11/28 02:14:32;;;;;;;;;;;;;;;;;;5024808;28;5099;-56
2023/11/28 02:16:58;;;;;;;;;;;;;;;;;;5047303;28;2232;-57
2023/11/28 02:19:23;;;;;;;;;;;;;;;;;;5046863;28;5062;-57
2023/11/28 02:21:48;;;;;;;;;;;;;;;;;;5044948;28;5046;-56
2023/11/28 02:24:14;;;;;;;;;;;;;;;;;;5028469;28;4971;-56
2023/11/28 02:26:39;;;;;;;;;;;;;;;;;;5029061;28;5023;-54
2023/11/28 02:29:05;;;;;;;;;;;;;;;;;;5049469;28;4994;-53
2023/11/28 02:31:30;;;;;;;;;;;;;;;;;;5051934;28;1851;-54
2023/11/28 02:33:55;;;;;;;;;;;;;;;;;;5043424;28;4922;-53
2023/11/28 02:36:21;;;;;;;;;;;;;;;;;;5050459;28;4712;-53
2023/11/28 02:38:46;;;;;;;;;;;;;;;;;;5032931;28;5170;-54
2023/11/28 02:41:11;;;;;;;;;;;;;;;;;;5048601;28;4982;-55
2023/11/28 02:43:37;;;;;;;;;;;;;;;;;;5051353;28;1184;-55
2023/11/28 02:46:02;;;;;;;;;;;;;;;;;;5050339;28;4822;-57
2023/11/28 02:48:27;;;;;;;;;;;;;;;;;;5050885;28;5039;-57
2023/11/28 02:50:53;;;;;;;;;;;;;;;;;;5049884;28;5197;-56
2023/11/28 02:53:18;;;;;;;;;;;;;;;;;;5050320;28;4991;-53
2023/11/28 02:55:44;;;;;;;;;;;;;;;;;;5050677;28;1097;-56
2023/11/28 02:58:09;;;;;;;;;;;;;;;;;;5050387;28;4603;-56
2023/11/28 03:00:34;;;;;;;;;;;;;;;;;;5050223;28;5053;-57
2023/11/28 03:02:59;;;;;;;;;;;;;;;;;;5049681;28;4739;-56
2023/11/28 03:05:25;;;;;;;;;;;;;;;;;;5039343;28;4979;-54
2023/11/28 03:07:51;;;;;;;;;;;;;;;;;;5050701;28;1997;-55
2023/11/28 03:10:16;;;;;;;;;;;;;;;;;;5039150;28;5149;-56
2023/11/28 03:12:41;;;;;;;;;;;;;;;;;;5039859;28;5065;-56
2023/11/28 03:15:07;;;;;;;;;;;;;;;;;;5049852;28;5096;-56
2023/11/28 03:17:32;;;;;;;;;;;;;;;;;;5050076;28;5051;-53
2023/11/28 03:19:57;;;;;;;;;;;;;;;;;;5045151;28;1177;-55
2023/11/28 03:22:23;;;;;;;;;;;;;;;;;;5017563;28;4838;-56
2023/11/28 03:24:49;;;;;;;;;;;;;;;;;;5041502;28;5074;-56
2023/11/28 03:27:17;;;;;;;;;;;;;;;;;;5049951;28;4990;-56
2023/11/28 03:29:43;;;;;;;;;;;;;;;;;;5045576;28;4990;-56
2023/11/28 03:32:08;;;;;;;;;;;;;;;;;;5048456;28;4646;-57
2023/11/28 03:34:33;;;;;;;;;;;;;;;;;;5027795;28;1462;-56
2023/11/28 03:36:59;;;;;;;;;;;;;;;;;;5049864;28;4853;-56
2023/11/28 03:39:24;;;;;;;;;;;;;;;;;;5049447;28;5052;-60
2023/11/28 03:41:50;;;;;;;;;;;;;;;;;;5049638;28;5063;-56
2023/11/28 03:44:15;;;;;;;;;;;;;;;;;;5049654;28;4871;-57
2023/11/28 03:46:40;;;;;;;;;;;;;;;;;;5049913;28;1093;-55
2023/11/28 03:49:06;;;;;;;;;;;;;;;;;;5048983;28;5028;-56
2023/11/28 03:51:32;;;;;;;;;;;;;;;;;;5045716;28;5157;-56
2023/11/28 03:53:57;;;;;;;;;;;;;;;;;;5029734;28;5169;-56
2023/11/28 03:56:22;;;;;;;;;;;;;;;;;;5049136;28;5166;-55
2023/11/28 03:58:48;;;;;;;;;;;;;;;;;;5050120;28;1224;-54
2023/11/28 04:01:13;;;;;;;;;;;;;;;;;;5049296;28;4439;-55
2023/11/28 04:03:38;;;;;;;;;;;;;;;;;;5048085;28;4977;-56
2023/11/28 04:06:04;;;;;;;;;;;;;;;;;;5040969;28;4465;-56
2023/11/28 04:08:29;;;;;;;;;;;;;;;;;;5048738;28;4902;-55
2023/11/28 04:10:54;;;;;;;;;;;;;;;;;;5041109;28;2116;-56
2023/11/28 04:13:20;;;;;;;;;;;;;;;;;;5043318;28;4580;-55
2023/11/28 04:15:45;;;;;;;;;;;;;;;;;;5045316;28;4810;-55
2023/11/28 04:18:10;;;;;;;;;;;;;;;;;;5048604;28;5089;-56
2023/11/28 04:20:36;;;;;;;;;;;;;;;;;;5047609;28;5021;-58
2023/11/28 04:23:01;;;;;;;;;;;;;;;;;;5048046;28;5158;-54
2023/11/28 04:25:26;;;;;;;;;;;;;;;;;;5049593;28;1126;-56
2023/11/28 04:27:52;;;;;;;;;;;;;;;;;;5048660;28;5146;-56
2023/11/28 04:30:17;;;;;;;;;;;;;;;;;;5042675;28;5450;-55
2023/11/28 04:32:43;;;;;;;;;;;;;;;;;;5048036;28;4472;-56
2023/11/28 04:35:08;;;;;;;;;;;;;;;;;;5039947;28;4985;-54
2023/11/28 04:37:33;;;;;;;;;;;;;;;;;;5031157;28;1082;-55
2023/11/28 04:39:59;;;;;;;;;;;;;;;;;;5048618;28;5028;-58
2023/11/28 04:42:24;;;;;;;;;;;;;;;;;;5048602;28;5038;-55
2023/11/28 04:44:50;;;;;;;;;;;;;;;;;;5046478;28;5859;-56
2023/11/28 04:47:16;;;;;;;;;;;;;;;;;;5048140;28;5103;-57
2023/11/28 04:49:41;;;;;;;;;;;;;;;;;;5048420;28;1279;-57
2023/11/28 04:52:06;;;;;;;;;;;;;;;;;;5048427;28;5155;-54
2023/11/28 04:54:33;;;;;;;;;;;;;;;;;;5048207;28;4928;-56
2023/11/28 04:56:58;;;;;;;;;;;;;;;;;;5044545;28;5073;-57
2023/11/28 04:59:23;;;;;;;;;;;;;;;;;;5046952;28;5384;-56
2023/11/28 05:01:48;;;;;;;;;;;;;;;;;;5045568;28;1180;-56
2023/11/28 05:04:14;;;;;;;;;;;;;;;;;;5025663;28;5105;-57
2023/11/28 05:06:39;;;;;;;;;;;;;;;;;;5046464;28;5003;-56
2023/11/28 05:09:06;;;;;;;;;;;;;;;;;;5047991;28;4907;-56
2023/11/28 05:11:31;;;;;;;;;;;;;;;;;;5038025;28;5075;-55
2023/11/28 05:13:57;;;;;;;;;;;;;;;;;;5048494;28;1330;-55
2023/11/28 05:16:22;;;;;;;;;;;;;;;;;;5040682;28;4801;-57
2023/11/28 05:18:47;;;;;;;;;;;;;;;;;;5029078;28;5002;-56
2023/11/28 05:21:13;;;;;;;;;;;;;;;;;;5046010;28;5453;-59
2023/11/28 05:23:38;;;;;;;;;;;;;;;;;;5047796;28;5037;-57
2023/11/28 05:26:04;;;;;;;;;;;;;;;;;;5043484;28;5111;-57
2023/11/28 05:28:29;;;;;;;;;;;;;;;;;;5045856;28;4947;-57
2023/11/28 05:30:54;;;;;;;;;;;;;;;;;;5020517;28;5219;-56
2023/11/28 05:33:20;;;;;;;;;;;;;;;;;;5046073;28;4997;-55
2023/11/28 05:35:45;;;;;;;;;;;;;;;;;;5047229;28;5114;-54
2023/11/28 05:38:10;;;;;;;;;;;;;;;;;;5029696;28;5047;-56
2023/11/28 05:40:36;;;;;;;;;;;;;;;;;;5048063;28;1094;-55
2023/11/28 05:43:01;;;;;;;;;;;;;;;;;;5029468;28;4997;-57
2023/11/28 05:45:27;;;;;;;;;;;;;;;;;;5047039;28;5025;-56
2023/11/28 05:47:52;;;;;;;;;;;;;;;;;;5047056;28;5108;-55
2023/11/28 05:50:17;;;;;;;;;;;;;;;;;;5046885;28;5133;-55
2023/11/28 05:52:43;;;;;;;;;;;;;;;;;;5048005;28;1191;-55
2023/11/28 05:55:08;;;;;;;;;;;;;;;;;;5043961;28;5131;-57
2023/11/28 05:57:33;;;;;;;;;;;;;;;;;;5047379;28;5048;-56
2023/11/28 05:59:59;;;;;;;;;;;;;;;;;;5044008;28;5658;-55
2023/11/28 06:02:24;;;;;;;;;;;;;;;;;;5046430;28;5046;-55
2023/11/28 06:04:50;;;;;;;;;;;;;;;;;;5039201;28;3147;-57
2023/11/28 06:07:15;;;;;;;;;;;;;;;;;;5022789;28;5095;-55
2023/11/28 06:09:40;;;;;;;;;;;;;;;;;;5041629;28;4680;-57
2023/11/28 06:12:06;;;;;;;;;;;;;;;;;;5041195;28;4704;-55
2023/11/28 06:14:32;;;;;;;;;;;;;;;;;;5041732;28;5569;-55
2023/11/28 06:16:59;;;;;;;;;;;;;;;;;;5040161;28;3252;-59
2023/11/28 06:19:24;;;;;;;;;;;;;;;;;;5024522;28;5420;-54
2023/11/28 06:21:50;;;;;;;;;;;;;;;;;;5033570;28;5070;-57
2023/11/28 06:24:15;;;;;;;;;;;;;;;;;;5037789;28;5084;-56
2023/11/28 06:26:41;;;;;;;;;;;;;;;;;;5032366;28;5126;-57
2023/11/28 06:29:06;;;;;;;;;;;;;;;;;;5036862;28;4963;-55
2023/11/28 06:31:31;;;;;;;;;;;;;;;;;;5038933;28;2437;-57
2023/11/28 06:33:56;;;;;;;;;;;;;;;;;;5033308;28;4869;-57
2023/11/28 06:36:22;;;;;;;;;;;;;;;;;;5040392;28;4999;-57
2023/11/28 06:38:48;;;;;;;;;;;;;;;;;;5043131;28;5068;-54
2023/11/28 06:41:13;;;;;;;;;;;;;;;;;;5041415;28;5186;-55
2023/11/28 06:43:38;;;;;;;;;;;;;;;;;;5044505;28;1115;-56
2023/11/28 06:46:05;;;;;;;;;;;;;;;;;;5046472;28;5003;-56
2023/11/28 06:48:30;;;;;;;;;;;;;;;;;;5044548;28;5070;-68
2023/11/28 06:50:56;;;;;;;;;;;;;;;;;;5044507;28;5123;-69
2023/11/28 06:53:22;;;;;;;;;;;;;;;;;;5041340;28;4996;-70
2023/11/28 06:55:47;;;;;;;;;;;;;;;;;;5042741;28;3158;-64
2023/11/28 06:58:12;;;;;;;;;;;;;;;;;;5036748;28;5002;-63
2023/11/28 07:00:38;;;;;;;;;;;;;;;;;;5039972;28;4534;-62
2023/11/28 07:03:04;;;;;;;;;;;;;;;;;;5043355;28;5440;-62
2023/11/28 07:05:29;;;;;;;;;;;;;;;;;;5028043;28;5128;-65
2023/11/28 07:07:54;;;;;;;;;;;;;;;;;;5043887;28;3363;-65
2023/11/28 07:10:20;;;;;;;;;;;;;;;;;;5041296;28;4466;-67
2023/11/28 07:12:45;;;;;;;;;;;;;;;;;;5034843;28;5082;-65
2023/11/28 07:15:13;;;;;;;;;;;;;;;;;;5043988;28;5019;-63
2023/11/28 07:17:38;;;;;;;;;;;;;;;;;;5038031;28;5081;-64
2023/11/28 07:20:06;;;;;;;;;;;;;;;;;;5046658;28;5266;-64
2023/11/28 07:22:31;;;;;;;;;;;;;;;;;;5037856;28;3346;-64
2023/11/28 07:24:57;;;;;;;;;;;;;;;;;;5049375;28;4857;-62
2023/11/28 07:27:22;;;;;;;;;;;;;;;;;;5043991;28;5030;-64
2023/11/28 07:29:48;;;;;;;;;;;;;;;;;;5040684;28;5167;-60
2023/11/28 07:32:13;;;;;;;;;;;;;;;;;;5042744;28;5493;-59
2023/11/28 07:34:38;;;;;;;;;;;;;;;;;;5043642;28;3275;-59
2023/11/28 07:37:04;;;;;;;;;;;;;;;;;;5042009;28;4972;-59
2023/11/28 07:39:29;;;;;;;;;;;;;;;;;;5037454;28;5177;-59
2023/11/28 07:41:54;;;;;;;;;;;;;;;;;;5047496;28;4688;-58
2023/11/28 07:44:20;;;;;;;;;;;;;;;;;;5041785;28;5100;-63
2023/11/28 07:46:45;;;;;;;;;;;;;;;;;;5028681;28;3343;-58
2023/11/28 07:49:10;;;;;;;;;;;;;;;;;;5045540;28;4521;-58
2023/11/28 07:51:36;;;;;;;;;;;;;;;;;;5045483;28;5197;-59
2023/11/28 07:54:01;;;;;;;;;;;;;;;;;;5047864;28;5078;-57
2023/11/28 07:56:27;;;;;;;;;;;;;;;;;;5048140;28;5101;-58
2023/11/28 07:58:52;;;;;;;;;;;;;;;;;;5048479;28;1156;-58
2023/11/28 08:01:17;;;;;;;;;;;;;;;;;;5041600;28;4695;-59
2023/11/28 08:03:42;;;;;;;;;;;;;;;;;;5043914;28;4930;-59
2023/11/28 08:06:08;;;;;;;;;;;;;;;;;;5044567;28;4948;-58
2023/11/28 08:08:35;;;;;;;;;;;;;;;;;;5030111;28;4942;-59
2023/11/28 08:11:00;;;;;;;;;;;;;;;;;;5041450;28;943;-59
2023/11/28 08:13:25;;;;;;;;;;;;;;;;;;5025612;28;4971;-60
2023/11/28 08:15:52;;;;;;;;;;;;;;;;;;5030414;28;4561;-60
2023/11/28 08:18:17;;;;;;;;;;;;;;;;;;5048227;28;4445;-60
2023/11/28 08:20:43;;;;;;;;;;;;;;;;;;5038010;28;5077;-62
2023/11/28 08:23:08;;;;;;;;;;;;;;;;;;5048585;28;5156;-58
2023/11/28 08:25:33;;;;;;;;;;;;;;;;;;5048550;28;1066;-59
2023/11/28 08:27:59;;;;;;;;;;;;;;;;;;5046419;28;4729;-61
2023/11/28 08:30:24;;;;;;;;;;;;;;;;;;5045568;28;5502;-60
2023/11/28 08:32:49;;;;;;;;;;;;;;;;;;5029969;28;5066;-59
2023/11/28 08:35:15;;;;;;;;;;;;;;;;;;5046620;28;5505;-58
2023/11/28 08:37:41;;;;;;;;;;;;;;;;;;5048543;28;1153;-59
2023/11/28 08:40:06;;;;;;;;;;;;;;;;;;5048035;28;4634;-59
2023/11/28 08:42:32;;;;;;;;;;;;;;;;;;5042441;28;5069;-58
2023/11/28 08:44:57;;;;;;;;;;;;;;;;;;5029726;28;5186;-60
2023/11/28 08:47:23;;;;;;;;;;;;;;;;;;5029727;28;4715;-61
2023/11/28 08:49:48;;;;;;;;;;;;;;;;;;5048470;28;982;-59
2023/11/28 08:52:13;;;;;;;;;;;;;;;;;;5047741;28;5026;-59
2023/11/28 08:54:42;;;;;;;;;;;;;;;;;;5048389;28;4720;-60
2023/11/28 08:57:08;;;;;;;;;;;;;;;;;;5023925;28;5146;-59
2023/11/28 08:59:33;;;;;;;;;;;;;;;;;;5047627;28;5120;-61
2023/11/28 09:01:59;;;;;;;;;;;;;;;;;;5047657;28;1251;-61
2023/11/28 09:04:24;;;;;;;;;;;;;;;;;;5042677;28;4981;-59
2023/11/28 09:06:50;;;;;;;;;;;;;;;;;;5046321;28;5213;-59
2023/11/28 09:09:15;;;;;;;;;;;;;;;;;;5030219;28;4700;-58
2023/11/28 09:11:41;;;;;;;;;;;;;;;;;;5034850;28;4473;-58
2023/11/28 09:14:06;;;;;;;;;;;;;;;;;;5039724;28;5214;-62
2023/11/28 09:16:31;;;;;;;;;;;;;;;;;;5045114;28;1090;-60
2023/11/28 09:18:57;;;;;;;;;;;;;;;;;;5047180;28;5062;-60
2023/11/28 09:21:22;;;;;;;;;;;;;;;;;;5045369;28;4462;-58
2023/11/28 09:23:48;;;;;;;;;;;;;;;;;;5043415;28;5183;-61
2023/11/28 09:26:13;;;;;;;;;;;;;;;;;;5043483;28;5321;-61
2023/11/28 09:28:38;;;;;;;;;;;;;;;;;;5041838;28;5057;-62
2023/11/28 09:31:04;;;;;;;;;;;;;;;;;;5023882;28;4466;-60
2023/11/28 09:33:30;;;;;;;;;;;;;;;;;;5035715;28;5830;-58
2023/11/28 09:35:56;;;;;;;;;;;;;;;;;;5040937;28;5129;-58
2023/11/28 09:38:21;;;;;;;;;;;;;;;;;;5046094;28;5050;-59
2023/11/28 09:40:46;;;;;;;;;;;;;;;;;;5024257;28;1248;-58
2023/11/28 09:43:11;;;;;;;;;;;;;;;;;;5040200;28;4930;-59
2023/11/28 09:45:39;;;;;;;;;;;;;;;;;;5026576;28;4503;-62
2023/11/28 09:48:06;;;;;;;;;;;;;;;;;;5046278;28;4927;-58
2023/11/28 09:50:31;;;;;;;;;;;;;;;;;;5027817;28;5027;-58
2023/11/28 09:52:57;;;;;;;;;;;;;;;;;;5029306;28;1291;-58
2023/11/28 09:55:23;;;;;;;;;;;;;;;;;;5036133;28;4929;-60
2023/11/28 09:57:49;;;;;;;;;;;;;;;;;;5028454;28;5058;-60
2023/11/28 10:00:17;;;;;;;;;;;;;;;;;;5025098;28;4614;-61
2023/11/28 10:02:42;;;;;;;;;;;;;;;;;;5044792;28;5520;-64
2023/11/28 10:05:08;;;;;;;;;;;;;;;;;;5027535;28;5051;-61
2023/11/28 10:07:33;;;;;;;;;;;;;;;;;;5038085;28;2993;-63
2023/11/28 10:10:06;;;;;;;;;;;;;;;;;;5019781;28;5204;-61
2023/11/28 10:12:31;;;;;;;;;;;;;;;;;;5037939;28;5276;-59
2023/11/28 10:14:57;;;;;;;;;;;;;;;;;;5043096;28;4614;-59
2023/11/28 10:17:23;;;;;;;;;;;;;;;;;;5040176;28;4934;-60
2023/11/28 10:19:48;;;;;;;;;;;;;;;;;;5043693;28;2998;-60
2023/11/28 10:22:14;;;;;;;;;;;;;;;;;;5032074;28;5072;-60
2023/11/28 10:24:39;;;;;;;;;;;;;;;;;;5036936;28;4883;-59
2023/11/28 10:27:05;;;;;;;;;;;;;;;;;;5041802;28;4561;-60
2023/11/28 10:29:32;;;;;;;;;;;;;;;;;;5034745;28;5094;-60
2023/11/28 10:31:57;;;;;;;;;;;;;;;;;;5025386;28;3357;-59
2023/11/28 10:34:23;;;;;;;;;;;;;;;;;;5023897;28;4999;-62
2023/11/28 10:36:48;;;;;;;;;;;;;;;;;;5033857;28;4556;-60
2023/11/28 10:39:15;;;;;;;;;;;;;;;;;;5043244;28;5007;-61
2023/11/28 10:41:40;;;;;;;;;;;;;;;;;;5045551;28;5088;-60
2023/11/28 10:44:06;;;;;;;;;;;;;;;;;;5041062;28;5242;-62
2023/11/28 10:46:32;;;;;;;;;;;;;;;;;;5038282;28;3236;-63
2023/11/28 10:48:58;;;;;;;;;;;;;;;;;;5043256;28;4554;-60
2023/11/28 10:51:23;;;;;;;;;;;;;;;;;;5039375;28;5031;-59
2023/11/28 10:53:49;;;;;;;;;;;;;;;;;;5021994;28;4915;-63
2023/11/28 10:56:14;;;;;;;;;;;;;;;;;;5052453;28;5052;-60
2023/11/28 10:58:40;;;;;;;;;;;;;;;;;;5047191;28;3186;-60
2023/11/28 11:01:05;;;;;;;;;;;;;;;;;;5049450;28;5118;-59
2023/11/28 11:03:31;;;;;;;;;;;;;;;;;;5038492;28;5601;-60
2023/11/28 11:05:56;;;;;;;;;;;;;;;;;;5024146;28;5101;-59
2023/11/28 11:08:22;;;;;;;;;;;;;;;;;;5021449;28;5083;-60
2023/11/28 11:10:47;;;;;;;;;;;;;;;;;;5026730;28;3421;-59
2023/11/28 11:13:31;;;;;;;;;;;;;;;;;;5045927;28;5074;-60
2023/11/28 11:16:15;;;;;;;;;;;;;;;;;;5049868;28;4835;-63
2023/11/28 11:18:41;;;;;;;;;;;;;;;;;;5035908;28;4759;-64
2023/11/28 11:21:30;;;;;;;;;;;;;;;;;;5012734;28;5193;-66
2023/11/28 11:23:56;;;;;;;;;;;;;;;;;;5035502;28;5170;-63
2023/11/28 11:26:51;;;;;;;;;;;;;;;;;;5043096;28;5100;-64
2023/11/28 11:29:25;;;;;;;;;;;;;;;;;;5038384;28;5141;-64
2023/11/28 11:31:51;;;;;;;;;;;;;;;;;;5048467;28;1093;-63
2023/11/28 11:34:31;;;;;;;;;;;;;;;;;;5049977;28;4455;-64
2023/11/28 11:37:13;;;;;;;;;;;;;;;;;;5038867;28;5260;-66
2023/11/28 11:39:39;;;;;;;;;;;;;;;;;;5048528;28;5138;-65
2023/11/28 11:42:08;;;;;;;;;;;;;;;;;;5048067;28;5080;-64
2023/11/28 11:44:34;;;;;;;;;;;;;;;;;;5041862;28;5182;-61
2023/11/28 11:47:12;;;;;;;;;;;;;;;;;;5046927;28;2118;-59
2023/11/28 11:49:38;;;;;;;;;;;;;;;;;;5042665;28;5138;-58
2023/11/28 11:52:03;;;;;;;;;;;;;;;;;;5042318;28;4976;-61
2023/11/28 11:54:31;;;;;;;;;;;;;;;;;;5047949;28;5281;-60
2023/11/28 11:56:56;;;;;;;;;;;;;;;;;;5053289;28;5194;-58
2023/11/28 11:59:25;;;;;;;;;;;;;;;;;;5044087;28;5306;-61
2023/11/28 12:01:52;;;;;;;;;;;;;;;;;;5043671;28;3299;-73
2023/11/28 12:04:18;;;;;;;;;;;;;;;;;;5036777;28;5616;-59
2023/11/28 12:06:43;;;;;;;;;;;;;;;;;;5038303;28;4463;-59
2023/11/28 12:09:08;;;;;;;;;;;;;;;;;;5038303;28;4724;-60
2023/11/28 12:11:34;;;;;;;;;;;;;;;;;;5037317;28;4697;-60
2023/11/28 12:14:00;;;;;;;;;;;;;;;;;;5031286;28;4750;-61
2023/11/28 12:16:25;;;;;;;;;;;;;;;;;;5020091;28;4912;-57
2023/11/28 12:18:51;;;;;;;;;;;;;;;;;;5039528;28;5696;-61
2023/11/28 12:21:17;;;;;;;;;;;;;;;;;;5033599;28;5008;-59
2023/11/28 12:23:43;;;;;;;;;;;;;;;;;;5023141;28;5134;-62
2023/11/28 12:26:08;;;;;;;;;;;;;;;;;;5043939;28;5137;-59
2023/11/28 12:28:33;;;;;;;;;;;;;;;;;;5041946;28;4892;-60
2023/11/28 12:30:58;;;;;;;;;;;;;;;;;;5047708;28;5045;-60
2023/11/28 12:33:24;;;;;;;;;;;;;;;;;;5021228;28;4508;-58
2023/11/28 12:35:49;;;;;;;;;;;;;;;;;;5028248;28;5093;-60
2023/11/28 12:38:14;;;;;;;;;;;;;;;;;;5042303;28;4984;-60
2023/11/28 12:40:40;;;;;;;;;;;;;;;;;;5042776;28;3355;-60
2023/11/28 12:43:05;;;;;;;;;;;;;;;;;;5042680;28;5293;-59
2023/11/28 12:45:32;;;;;;;;;;;;;;;;;;5022812;28;4447;-61
2023/11/28 12:47:58;;;;;;;;;;;;;;;;;;5039815;28;4865;-59
2023/11/28 12:50:27;;;;;;;;;;;;;;;;;;5027231;28;4966;-59
2023/11/28 12:52:53;;;;;;;;;;;;;;;;;;5040988;28;3504;-60
2023/11/28 12:55:18;;;;;;;;;;;;;;;;;;5046188;28;4972;-60
2023/11/28 12:57:43;;;;;;;;;;;;;;;;;;5045104;28;5151;-60
2023/11/28 13:00:09;;;;;;;;;;;;;;;;;;5023315;28;5158;-59
2023/11/28 13:02:34;;;;;;;;;;;;;;;;;;5044909;28;5936;-60
2023/11/28 13:05:00;;;;;;;;;;;;;;;;;;5043735;28;3203;-59
2023/11/28 13:07:25;;;;;;;;;;;;;;;;;;5041816;28;4768;-60
2023/11/28 13:09:50;;;;;;;;;;;;;;;;;;5038847;28;5090;-59
2023/11/28 13:12:18;;;;;;;;;;;;;;;;;;5040769;28;4878;-60
2023/11/28 13:14:43;;;;;;;;;;;;;;;;;;5045035;28;5116;-60
2023/11/28 13:17:08;;;;;;;;;;;;;;;;;;5041411;28;5247;-60
2023/11/28 13:19:34;;;;;;;;;;;;;;;;;;5042201;28;3284;-58
2023/11/28 13:21:59;;;;;;;;;;;;;;;;;;5044171;28;4843;-60
2023/11/28 13:24:24;;;;;;;;;;;;;;;;;;5022858;28;5188;-61
2023/11/28 13:26:50;;;;;;;;;;;;;;;;;;5039037;28;5215;-61
2023/11/28 13:29:15;;;;;;;;;;;;;;;;;;5040235;28;5145;-59
2023/11/28 13:31:41;;;;;;;;;;;;;;;;;;5042894;28;3409;-65
2023/11/28 13:34:07;;;;;;;;;;;;;;;;;;5039501;28;5243;-60
2023/11/28 13:36:32;;;;;;;;;;;;;;;;;;5046411;28;4873;-60
2023/11/28 13:38:58;;;;;;;;;;;;;;;;;;5036671;28;5087;-58
2023/11/28 13:41:23;;;;;;;;;;;;;;;;;;5044058;28;5107;-59
2023/11/28 13:43:49;;;;;;;;;;;;;;;;;;5046959;28;1132;-59
2023/11/28 13:46:14;;;;;;;;;;;;;;;;;;5046056;28;4642;-60
2023/11/28 13:48:39;;;;;;;;;;;;;;;;;;5038542;28;5972;-60
2023/11/28 13:51:06;;;;;;;;;;;;;;;;;;5038696;28;4856;-63
2023/11/28 13:53:32;;;;;;;;;;;;;;;;;;5038815;28;4917;-59
2023/11/28 13:55:58;;;;;;;;;;;;;;;;;;5048881;28;1089;-62
2023/11/28 13:58:24;;;;;;;;;;;;;;;;;;5045448;28;5028;-58
2023/11/28 14:00:49;;;;;;;;;;;;;;;;;;5042141;28;4997;-60
2023/11/28 14:03:14;;;;;;;;;;;;;;;;;;5037137;28;5273;-59
2023/11/28 14:05:40;;;;;;;;;;;;;;;;;;5043804;28;5154;-59
2023/11/28 14:08:06;;;;;;;;;;;;;;;;;;5037816;28;4916;-58
2023/11/28 14:10:31;;;;;;;;;;;;;;;;;;5037756;28;1096;-57
2023/11/28 14:12:56;;;;;;;;;;;;;;;;;;5038115;28;5061;-61
2023/11/28 14:15:23;;;;;;;;;;;;;;;;;;5046717;28;4850;-62
2023/11/28 14:17:48;;;;;;;;;;;;;;;;;;5028102;28;4960;-60
2023/11/28 14:20:13;;;;;;;;;;;;;;;;;;5039883;28;5231;-65
2023/11/28 14:22:39;;;;;;;;;;;;;;;;;;5039336;28;3643;-60
2023/11/28 14:25:07;;;;;;;;;;;;;;;;;;5036042;28;4637;-60
2023/11/28 14:27:35;;;;;;;;;;;;;;;;;;5043096;28;5068;-61
2023/11/28 14:30:00;;;;;;;;;;;;;;;;;;5045012;28;5190;-60
2023/11/28 14:32:25;;;;;;;;;;;;;;;;;;5044737;28;5961;-60
2023/11/28 14:34:51;;;;;;;;;;;;;;;;;;5043227;28;1485;-58
2023/11/28 14:37:16;;;;;;;;;;;;;;;;;;5047952;28;5143;-59
2023/11/28 14:39:45;;;;;;;;;;;;;;;;;;5048981;28;4812;-60
2023/11/28 14:42:10;;;;;;;;;;;;;;;;;;5048666;28;4990;-59
2023/11/28 14:44:36;;;;;;;;;;;;;;;;;;5041970;28;4813;-59
2023/11/28 14:47:01;;;;;;;;;;;;;;;;;;5049626;28;5006;-58
2023/11/28 14:49:26;;;;;;;;;;;;;;;;;;5044846;28;2005;-59
2023/11/28 14:51:51;;;;;;;;;;;;;;;;;;5038689;28;4911;-59
2023/11/28 14:54:17;;;;;;;;;;;;;;;;;;5042123;28;5037;-60
2023/11/28 14:56:42;;;;;;;;;;;;;;;;;;5038005;28;5031;-61
2023/11/28 14:59:08;;;;;;;;;;;;;;;;;;5045101;28;4985;-60
2023/11/28 15:01:33;;;;;;;;;;;;;;;;;;5044362;28;3088;-66
2023/11/28 15:03:59;;;;;;;;;;;;;;;;;;5046800;28;5027;-64
2023/11/28 15:06:25;;;;;;;;;;;;;;;;;;5040992;28;4972;-65
2023/11/28 15:08:50;;;;;;;;;;;;;;;;;;5047433;28;5364;-59
2023/11/28 15:11:15;;;;;;;;;;;;;;;;;;5045292;28;5031;-60
2023/11/28 15:13:42;;;;;;;;;;;;;;;;;;5045011;28;3228;-63
2023/11/28 15:16:07;;;;;;;;;;;;;;;;;;5045732;28;4636;-65
2023/11/28 15:18:32;;;;;;;;;;;;;;;;;;5030370;28;4718;-62
2023/11/28 15:20:58;;;;;;;;;;;;;;;;;;5046521;28;5060;-61
2023/11/28 15:23:24;;;;;;;;;;;;;;;;;;5048336;28;4444;-62
2023/11/28 15:25:49;;;;;;;;;;;;;;;;;;5044441;28;2081;-63
2023/11/28 15:28:15;;;;;;;;;;;;;;;;;;5038540;28;5094;-63
2023/11/28 15:30:41;;;;;;;;;;;;;;;;;;5044103;28;4662;-64
2023/11/28 15:33:07;;;;;;;;;;;;;;;;;;5049051;28;5289;-62
2023/11/28 15:35:32;;;;;;;;;;;;;;;;;;5043539;28;5304;-60
2023/11/28 15:37:57;;;;;;;;;;;;;;;;;;5049226;28;1295;-63
2023/11/28 15:40:23;;;;;;;;;;;;;;;;;;5048372;28;5111;-62
2023/11/28 15:42:48;;;;;;;;;;;;;;;;;;5048873;28;5221;-63
2023/11/28 15:45:13;;;;;;;;;;;;;;;;;;5041520;28;4867;-66
2023/11/28 15:47:39;;;;;;;;;;;;;;;;;;5013777;28;5050;-64
2023/11/28 15:50:04;;;;;;;;;;;;;;;;;;5042321;28;4630;-61
2023/11/28 15:52:31;;;;;;;;;;;;;;;;;;5048794;28;1173;-62
2023/11/28 15:54:57;;;;;;;;;;;;;;;;;;5049181;28;5046;-60
2023/11/28 15:57:22;;;;;;;;;;;;;;;;;;5047448;28;4432;-60
2023/11/28 15:59:48;;;;;;;;;;;;;;;;;;5030862;28;4849;-61
2023/11/28 16:02:13;;;;;;;;;;;;;;;;;;5048570;28;5001;-66
2023/11/28 16:04:39;;;;;;;;;;;;;;;;;;5031833;28;1434;-62
2023/11/28 16:07:04;;;;;;;;;;;;;;;;;;5047008;28;4437;-62
2023/11/28 16:09:29;;;;;;;;;;;;;;;;;;5048282;28;5044;-61
2023/11/28 16:11:55;;;;;;;;;;;;;;;;;;5044561;28;4963;-62
2023/11/28 16:14:20;;;;;;;;;;;;;;;;;;5045508;28;4874;-63
2023/11/28 16:16:46;;;;;;;;;;;;;;;;;;5046871;28;1125;-62
2023/11/28 16:19:11;;;;;;;;;;;;;;;;;;5045637;28;4675;-61
2023/11/28 16:21:38;;;;;;;;;;;;;;;;;;5045631;28;5084;-63
2023/11/28 16:24:03;;;;;;;;;;;;;;;;;;5047683;28;5319;-61
2023/11/28 16:26:28;;;;;;;;;;;;;;;;;;5047767;28;5035;-63
2023/11/28 16:28:55;;;;;;;;;;;;;;;;;;5045975;28;5138;-62
2023/11/28 16:31:21;;;;;;;;;;;;;;;;;;5029816;28;5084;-60
2023/11/28 16:33:48;;;;;;;;;;;;;;;;;;5046301;28;4654;-61
2023/11/28 16:36:13;;;;;;;;;;;;;;;;;;5047387;28;5064;-60
2023/11/28 16:38:38;;;;;;;;;;;;;;;;;;5029245;28;5099;-60
2023/11/28 16:41:04;;;;;;;;;;;;;;;;;;5045467;28;5089;-61
2023/11/28 16:43:29;;;;;;;;;;;;;;;;;;5029842;28;1342;-63
2023/11/28 16:45:55;;;;;;;;;;;;;;;;;;5028958;28;4655;-62
2023/11/28 16:48:21;;;;;;;;;;;;;;;;;;5046625;28;4487;-61
2023/11/28 16:50:47;;;;;;;;;;;;;;;;;;5046828;28;5291;-61
2023/11/28 16:53:12;;;;;;;;;;;;;;;;;;5037220;28;4466;-60